createdAt,value
2022-11-27T00:01:35.611Z,39.60
2022-11-27T00:04:03.942Z,34.20
2022-11-27T00:06:33.019Z,32.80
2022-11-27T00:09:03.721Z,32.20
2022-11-27T00:11:32.243Z,33.00
2022-11-27T00:14:00.918Z,47.10
2022-11-27T00:16:30.090Z,62.20
2022-11-27T00:18:58.567Z,48.80
2022-11-27T00:21:29.040Z,38.20
2022-11-27T00:23:58.879Z,32.60
2022-11-27T00:28:55.727Z,34.20
2022-11-27T00:31:28.735Z,31.70
2022-11-27T00:33:58.843Z,33.10
2022-11-27T00:36:28.586Z,36.00
2022-11-27T00:38:56.368Z,46.20
2022-11-27T00:41:26.445Z,68.10
2022-11-27T00:43:55.539Z,52.80
2022-11-27T00:46:28.832Z,38.60
2022-11-27T00:49:01.951Z,31.40
2022-11-27T00:51:30.389Z,36.60
2022-11-27T00:53:58.666Z,35.80
2022-11-27T00:56:32.422Z,35.10
2022-11-27T00:59:00.913Z,34.90
2022-11-27T01:01:31.680Z,32.60
2022-11-27T01:04:01.315Z,47.00
2022-11-27T01:06:30.335Z,58.50
2022-11-27T01:08:58.763Z,47.80
2022-11-27T01:11:30.487Z,38.90
2022-11-27T01:14:01.318Z,42.70
2022-11-27T01:16:30.973Z,43.70
2022-11-27T01:19:00.810Z,30.30
2022-11-27T01:21:32.475Z,35.80
2022-11-27T01:24:01.886Z,38.30
2022-11-27T01:26:30.199Z,37.30
2022-11-27T01:28:59.123Z,47.50
2022-11-27T01:31:30.218Z,58.00
2022-11-27T01:34:01.927Z,59.80
2022-11-27T01:36:30.847Z,40.80
2022-11-27T01:38:59.676Z,38.10
2022-11-27T01:41:32.966Z,42.20
2022-11-27T01:44:23.512Z,40.20
2022-11-27T01:47:00.409Z,41.60
2022-11-27T01:49:38.507Z,30.50
2022-11-27T01:52:13.671Z,34.20
2022-11-27T01:54:52.222Z,58.40
2022-11-27T01:57:26.445Z,59.30
2022-11-27T01:59:57.849Z,41.10
2022-11-27T02:02:25.913Z,42.90
2022-11-27T02:04:55.106Z,42.10
2022-11-27T02:07:22.898Z,40.50
2022-11-27T02:09:51.225Z,36.40
2022-11-27T02:12:48.280Z,35.90
2022-11-27T02:15:47.420Z,34.00
2022-11-27T02:19:03.182Z,34.30
2022-11-27T02:21:51.863Z,69.10
2022-11-27T02:24:49.044Z,61.10
2022-11-27T02:27:32.066Z,44.00
2022-11-27T02:30:01.734Z,38.30
2022-11-27T02:32:42.010Z,32.60
2022-11-27T02:35:17.657Z,36.70
2022-11-27T02:37:53.383Z,24.80
2022-11-27T02:40:38.215Z,24.50
2022-11-27T02:43:12.171Z,32.60
2022-11-27T02:45:43.860Z,51.90
2022-11-27T02:48:15.275Z,57.00
2022-11-27T02:50:45.859Z,46.40
2022-11-27T02:53:25.884Z,37.10
2022-11-27T02:55:53.665Z,32.00
2022-11-27T02:58:23.542Z,28.20
2022-11-27T03:00:54.839Z,33.20
2022-11-27T03:03:26.729Z,29.40
2022-11-27T03:06:01.058Z,30.60
2022-11-27T03:08:30.859Z,31.20
2022-11-27T03:13:38.101Z,61.50
2022-11-27T03:16:31.227Z,42.40
2022-11-27T03:19:03.440Z,40.80
2022-11-27T03:21:39.150Z,37.10
2022-11-27T03:27:39.911Z,30.70
2022-11-27T03:30:11.760Z,28.00
2022-11-27T03:32:39.866Z,34.00
2022-11-27T03:35:11.686Z,33.00
2022-11-27T03:37:39.658Z,39.60
2022-11-27T03:40:08.694Z,50.20
2022-11-27T03:43:02.737Z,43.40
2022-11-27T03:45:45.515Z,37.40
2022-11-27T03:48:31.388Z,33.50
2022-11-27T03:50:58.991Z,37.50
2022-11-27T03:54:10.843Z,33.60
2022-11-27T03:57:00.856Z,33.90
2022-11-27T03:59:32.945Z,26.40
2022-11-27T04:02:00.699Z,43.20
2022-11-27T04:04:28.539Z,56.90
2022-11-27T04:06:56.398Z,41.30
2022-11-27T04:09:25.522Z,41.30
2022-11-27T04:11:53.291Z,35.40
2022-11-27T04:14:21.006Z,32.10
2022-11-27T04:16:48.710Z,33.40
2022-11-27T04:19:16.393Z,34.30
2022-11-27T04:21:44.053Z,36.80
2022-11-27T04:24:11.737Z,29.80
2022-11-27T04:26:39.440Z,30.20
2022-11-27T04:29:07.103Z,48.60
2022-11-27T04:31:34.885Z,49.40
2022-11-27T04:34:02.682Z,40.80
2022-11-27T04:36:32.555Z,47.80
2022-11-27T04:39:03.834Z,37.70
2022-11-27T04:41:31.548Z,38.60
2022-11-27T04:43:59.243Z,30.50
2022-11-27T04:46:26.965Z,34.20
2022-11-27T04:48:54.742Z,29.90
2022-11-27T04:51:22.647Z,35.70
2022-11-27T04:53:51.005Z,44.50
2022-11-27T04:56:18.703Z,45.00
2022-11-27T04:58:46.449Z,44.50
2022-11-27T05:01:14.241Z,43.90
2022-11-27T05:03:42.062Z,42.00
2022-11-27T05:06:09.903Z,40.00
2022-11-27T05:08:37.587Z,36.70
2022-11-27T05:11:07.836Z,37.40
2022-11-27T05:13:35.692Z,38.70
2022-11-27T05:16:04.214Z,32.40
2022-11-27T05:18:32.233Z,34.60
2022-11-27T05:21:02.424Z,40.70
2022-11-27T05:23:30.956Z,45.30
2022-11-27T05:25:58.787Z,45.90
2022-11-27T05:28:27.275Z,48.80
2022-11-27T05:30:55.164Z,44.60
2022-11-27T05:33:23.131Z,40.60
2022-11-27T05:35:50.948Z,43.00
2022-11-27T05:38:18.727Z,39.10
2022-11-27T05:40:46.417Z,32.50
2022-11-27T05:43:14.207Z,38.60
2022-11-27T05:45:41.959Z,36.80
2022-11-27T05:48:09.854Z,40.40
2022-11-27T05:50:37.808Z,53.30
2022-11-27T05:53:05.955Z,48.20
2022-11-27T05:55:33.641Z,41.50
2022-11-27T05:58:01.316Z,40.00
2022-11-27T06:00:29.096Z,45.60
2022-11-27T06:02:56.881Z,40.10
2022-11-27T06:05:24.701Z,38.00
2022-11-27T06:07:52.521Z,37.90
2022-11-27T06:10:20.632Z,32.90
2022-11-27T06:12:48.314Z,33.70
2022-11-27T06:15:16.151Z,28.80
2022-11-27T06:17:43.823Z,37.80
2022-11-27T06:20:11.704Z,60.80
2022-11-27T06:22:39.484Z,50.20
2022-11-27T06:25:07.549Z,40.80
2022-11-27T06:27:36.736Z,41.50
2022-11-27T06:30:06.031Z,33.00
2022-11-27T06:32:33.774Z,43.10
2022-11-27T06:35:01.615Z,39.20
2022-11-27T06:37:30.231Z,29.00
2022-11-27T06:39:58.037Z,35.20
2022-11-27T06:42:28.408Z,39.50
2022-11-27T06:44:56.664Z,46.20
2022-11-27T06:47:24.583Z,57.00
2022-11-27T06:49:52.239Z,45.30
2022-11-27T06:52:20.031Z,51.20
2022-11-27T06:54:48.111Z,46.60
2022-11-27T06:57:16.475Z,48.50
2022-11-27T06:59:44.127Z,42.10
2022-11-27T07:02:15.090Z,37.60
2022-11-27T07:04:43.088Z,33.50
2022-11-27T07:07:11.032Z,38.50
2022-11-27T07:09:38.871Z,33.00
2022-11-27T07:12:08.172Z,53.80
2022-11-27T07:14:35.855Z,74.30
2022-11-27T07:17:03.640Z,48.80
2022-11-27T07:19:31.320Z,43.10
2022-11-27T07:21:59.037Z,39.90
2022-11-27T07:24:26.780Z,32.20
2022-11-27T07:26:54.512Z,41.10
2022-11-27T07:29:22.200Z,40.00
2022-11-27T07:31:51.496Z,32.10
2022-11-27T07:34:21.677Z,30.50
2022-11-27T07:36:49.715Z,33.50
2022-11-27T07:39:28.741Z,52.00
2022-11-27T07:42:30.950Z,59.20
2022-11-27T07:44:55.829Z,43.90
2022-11-27T07:47:23.528Z,36.80
2022-11-27T07:49:51.354Z,40.20
2022-11-27T07:52:19.001Z,35.60
2022-11-27T07:54:46.662Z,36.70
2022-11-27T07:57:14.405Z,31.80
2022-11-27T07:59:47.154Z,31.50
2022-11-27T08:02:15.471Z,36.30
2022-11-27T08:04:43.722Z,35.10
2022-11-27T08:07:11.888Z,45.90
2022-11-27T08:09:40.038Z,51.40
2022-11-27T08:12:07.864Z,57.70
2022-11-27T08:14:35.591Z,48.20
2022-11-27T08:17:03.393Z,43.70
2022-11-27T08:19:31.128Z,34.70
2022-11-27T08:21:58.943Z,32.80
2022-11-27T08:24:26.582Z,31.80
2022-11-27T08:26:54.413Z,34.30
2022-11-27T08:29:22.223Z,31.10
2022-11-27T08:31:50.040Z,29.90
2022-11-27T08:34:17.865Z,25.80
2022-11-27T08:36:45.510Z,33.30
2022-11-27T08:39:14.298Z,49.40
2022-11-27T08:41:41.979Z,48.70
2022-11-27T08:44:09.740Z,37.10
2022-11-27T08:46:38.842Z,38.20
2022-11-27T08:49:06.577Z,34.90
2022-11-27T08:51:34.451Z,37.20
2022-11-27T08:54:02.268Z,28.30
2022-11-27T08:56:29.950Z,35.90
2022-11-27T08:58:57.679Z,32.30
2022-11-27T09:01:28.951Z,32.70
2022-11-27T09:03:57.053Z,22.70
2022-11-27T09:06:30.340Z,33.10
2022-11-27T09:09:02.871Z,48.30
2022-11-27T09:11:31.992Z,44.00
2022-11-27T09:14:01.894Z,42.10
2022-11-27T09:16:30.686Z,41.20
2022-11-27T09:18:58.928Z,36.40
2022-11-27T09:21:28.339Z,35.00
2022-11-27T09:23:58.443Z,28.40
2022-11-27T09:26:27.847Z,25.70
2022-11-27T09:28:57.442Z,29.30
2022-11-27T09:31:26.427Z,32.20
2022-11-27T09:33:54.396Z,30.70
2022-11-27T09:36:24.432Z,43.10
2022-11-27T09:38:52.694Z,40.30
2022-11-27T09:41:26.600Z,44.00
2022-11-27T09:44:02.946Z,41.20
2022-11-27T09:46:38.774Z,43.10
2022-11-27T09:49:35.924Z,31.00
2022-11-27T09:52:14.757Z,33.30
2022-11-27T09:55:05.725Z,30.30
2022-11-27T09:57:37.673Z,34.00
2022-11-27T10:00:13.271Z,25.00
2022-11-27T10:02:43.152Z,31.90
2022-11-27T10:05:44.588Z,35.30
2022-11-27T10:09:02.086Z,36.90
2022-11-27T10:11:32.100Z,33.20
2022-11-27T10:14:08.979Z,32.20
2022-11-27T10:16:54.210Z,31.80
2022-11-27T10:19:27.777Z,32.10
2022-11-27T10:22:02.916Z,36.20
2022-11-27T10:24:39.953Z,26.10
2022-11-27T10:27:20.468Z,26.10
2022-11-27T10:29:54.440Z,28.40
2022-11-27T10:32:54.261Z,31.40
2022-11-27T10:35:24.848Z,42.10
2022-11-27T10:38:11.120Z,38.90
2022-11-27T10:40:45.632Z,38.10
2022-11-27T10:43:19.770Z,30.90
2022-11-27T10:46:02.279Z,29.30
2022-11-27T10:48:30.404Z,31.60
2022-11-27T10:50:59.570Z,33.50
2022-11-27T10:53:32.093Z,30.60
2022-11-27T10:56:12.013Z,27.30
2022-11-27T10:59:05.552Z,26.50
2022-11-27T11:01:48.637Z,24.10
2022-11-27T11:04:37.610Z,31.60
2022-11-27T11:07:25.517Z,36.20
2022-11-27T11:09:54.615Z,35.90
2022-11-27T11:12:23.679Z,31.10
2022-11-27T11:14:56.872Z,32.80
2022-11-27T11:17:31.387Z,31.30
2022-11-27T11:19:59.278Z,21.90
2022-11-27T11:22:28.324Z,24.80
2022-11-27T11:24:56.611Z,26.60
2022-11-27T11:27:30.367Z,24.00
2022-11-27T11:30:00.647Z,22.80
2022-11-27T11:32:40.249Z,26.10
2022-11-27T11:35:30.451Z,28.20
2022-11-27T11:37:59.282Z,28.40
2022-11-27T11:40:32.911Z,32.30
2022-11-27T11:43:10.116Z,34.50
2022-11-27T11:45:48.729Z,39.00
2022-11-27T11:48:25.506Z,31.60
2022-11-27T11:50:59.153Z,28.40
2022-11-27T11:53:40.455Z,29.80
2022-11-27T11:56:44.863Z,25.20
2022-11-27T11:59:31.190Z,29.30
2022-11-27T12:02:18.564Z,22.70
2022-11-27T12:05:15.698Z,26.70
2022-11-27T12:07:52.002Z,25.00
2022-11-27T12:10:32.629Z,24.50
2022-11-27T12:13:03.234Z,35.30
2022-11-27T12:16:01.080Z,36.90
2022-11-27T12:18:45.521Z,34.70
2022-11-27T12:21:15.191Z,28.50
2022-11-27T12:26:37.239Z,25.80
2022-11-27T12:29:23.985Z,27.40
2022-11-27T12:32:17.099Z,23.60
2022-11-27T12:35:11.482Z,23.80
2022-11-27T12:40:37.654Z,23.50
2022-11-27T12:43:17.202Z,23.10
2022-11-27T12:46:01.618Z,32.30
2022-11-27T12:48:39.429Z,35.00
2022-11-27T12:51:12.309Z,34.50
2022-11-27T12:53:45.484Z,27.40
2022-11-27T12:56:20.951Z,27.70
2022-11-27T12:58:53.233Z,28.40
2022-11-27T13:01:27.763Z,24.90
2022-11-27T13:04:10.990Z,28.40
2022-11-27T13:06:53.218Z,23.80
2022-11-27T13:09:44.174Z,25.90
2022-11-27T13:12:20.396Z,24.90
2022-11-27T13:14:56.681Z,25.20
2022-11-27T13:17:37.226Z,30.80
2022-11-27T13:20:14.317Z,31.10
2022-11-27T13:22:42.586Z,32.50
2022-11-27T13:25:14.672Z,34.00
2022-11-27T13:27:47.161Z,30.10
2022-11-27T13:30:24.943Z,27.60
2022-11-27T13:32:57.626Z,28.50
2022-11-27T13:35:39.949Z,24.30
2022-11-27T13:38:19.482Z,28.20
2022-11-27T13:40:52.036Z,28.30
2022-11-27T13:43:29.051Z,27.30
2022-11-27T13:46:06.120Z,23.40
2022-11-27T13:48:38.539Z,28.10
2022-11-27T13:51:09.398Z,33.40
2022-11-27T13:53:42.320Z,30.80
2022-11-27T13:56:10.113Z,30.50
2022-11-27T13:58:40.663Z,28.10
2022-11-27T14:01:21.027Z,30.30
2022-11-27T14:03:49.701Z,33.00
2022-11-27T14:06:22.019Z,30.90
2022-11-27T14:08:59.370Z,32.40
2022-11-27T14:11:41.186Z,33.60
2022-11-27T14:14:19.978Z,38.30
2022-11-27T14:17:05.022Z,38.30
2022-11-27T14:19:44.062Z,41.70
2022-11-27T14:22:17.225Z,40.10
2022-11-27T14:28:36.263Z,35.00
2022-11-27T14:31:03.524Z,30.00
2022-11-27T14:44:38.959Z,31.60
2022-11-27T14:47:08.372Z,39.20
2022-11-27T14:49:36.284Z,36.20
2022-11-27T14:52:12.810Z,35.80
2022-11-27T14:54:41.849Z,37.80
2022-11-27T14:57:18.300Z,31.60
2022-11-27T14:59:46.030Z,39.70
2022-11-27T15:02:13.773Z,38.30
2022-11-27T15:04:43.359Z,34.10
2022-11-27T15:07:17.370Z,35.50
2022-11-27T15:09:48.839Z,43.30
2022-11-27T15:12:36.689Z,35.20
2022-11-27T15:15:08.954Z,59.70
2022-11-27T15:17:39.526Z,49.90
2022-11-27T15:20:16.825Z,46.00
2022-11-27T15:22:53.224Z,40.80
2022-11-27T15:25:34.733Z,40.00
2022-11-27T15:28:02.756Z,34.70
2022-11-27T15:30:30.703Z,34.10
2022-11-27T15:32:58.579Z,38.20
2022-11-27T15:35:29.244Z,36.80
2022-11-27T15:37:58.305Z,50.10
2022-11-27T15:40:36.902Z,52.30
2022-11-27T15:43:16.121Z,44.30
2022-11-27T15:45:44.648Z,45.10
2022-11-27T15:48:17.939Z,47.40
2022-11-27T15:50:51.408Z,36.80
2022-11-27T15:53:19.617Z,37.20
2022-11-27T15:55:47.489Z,39.10
2022-11-27T15:58:17.579Z,39.90
2022-11-27T16:00:45.366Z,49.30
2022-11-27T16:03:14.437Z,48.10
2022-11-27T16:05:42.133Z,47.20
2022-11-27T16:08:12.892Z,49.80
2022-11-27T16:10:42.142Z,43.70
2022-11-27T16:13:09.906Z,46.40
2022-11-27T16:15:37.721Z,40.10
2022-11-27T16:18:07.150Z,36.90
2022-11-27T16:20:35.045Z,35.80
2022-11-27T16:23:02.766Z,40.30
2022-11-27T16:25:30.526Z,46.10
2022-11-27T16:28:02.829Z,43.70
2022-11-27T16:30:31.931Z,51.30
2022-11-27T16:32:59.882Z,49.60
2022-11-27T16:35:27.651Z,43.40
2022-11-27T16:37:56.091Z,41.20
2022-11-27T16:40:23.830Z,37.10
2022-11-27T16:42:51.758Z,35.10
2022-11-27T16:45:19.804Z,38.90
2022-11-27T16:47:48.533Z,47.30
2022-11-27T16:50:17.780Z,46.60
2022-11-27T16:52:48.947Z,45.70
2022-11-27T16:55:21.696Z,53.90
2022-11-27T16:57:50.097Z,42.40
2022-11-27T17:00:18.501Z,52.50
2022-11-27T17:02:46.367Z,51.70
2022-11-27T17:05:14.201Z,51.60
2022-11-27T17:07:42.658Z,50.40
2022-11-27T17:10:10.770Z,45.90
2022-11-27T17:12:38.530Z,41.60
2022-11-27T17:15:06.725Z,49.00
2022-11-27T17:17:39.859Z,46.90
2022-11-27T17:20:08.610Z,46.70
2022-11-27T17:22:36.944Z,50.20
2022-11-27T17:25:05.403Z,48.40
2022-11-27T17:27:34.240Z,46.90
2022-11-27T17:30:03.534Z,49.30
2022-11-27T17:32:31.957Z,40.70
2022-11-27T17:34:59.648Z,43.40
2022-11-27T17:37:27.600Z,38.90
2022-11-27T17:39:55.359Z,42.20
2022-11-27T17:42:23.183Z,37.70
2022-11-27T17:44:51.590Z,50.30
2022-11-27T17:47:19.315Z,54.60
2022-11-27T17:49:47.110Z,56.80
2022-11-27T17:52:14.874Z,52.10
2022-11-27T17:54:43.310Z,49.00
2022-11-27T17:57:11.020Z,40.60
2022-11-27T17:59:40.178Z,46.80
2022-11-27T18:02:11.245Z,44.90
2022-11-27T18:04:39.038Z,43.00
2022-11-27T18:07:06.796Z,50.30
2022-11-27T18:09:34.464Z,54.90
2022-11-27T18:12:06.294Z,62.10
2022-11-27T18:14:34.686Z,59.70
2022-11-27T18:17:05.018Z,59.80
2022-11-27T18:19:32.927Z,59.10
2022-11-27T18:22:00.700Z,56.90
2022-11-27T18:27:58.145Z,52.80
2022-11-27T18:30:25.871Z,50.50
2022-11-27T18:32:53.610Z,45.10
2022-11-27T18:35:24.015Z,47.00
2022-11-27T18:37:51.675Z,47.70
2022-11-27T18:40:19.473Z,56.00
2022-11-27T18:42:47.176Z,61.60
2022-11-27T18:45:31.820Z,44.70
2022-11-27T18:48:00.977Z,48.90
2022-11-27T18:50:29.967Z,41.80
2022-11-27T18:52:58.037Z,42.50
2022-11-27T18:55:25.974Z,41.30
2022-11-27T18:57:54.670Z,40.80
2022-11-27T19:00:22.446Z,44.60
2022-11-27T19:02:50.301Z,53.00
2022-11-27T19:05:18.096Z,58.20
2022-11-27T19:07:45.869Z,50.90
2022-11-27T19:10:13.955Z,53.60
2022-11-27T19:12:41.738Z,56.60
2022-11-27T19:15:09.885Z,49.70
2022-11-27T19:17:39.106Z,48.60
2022-11-27T19:20:08.244Z,41.80
2022-11-27T19:22:38.314Z,49.10
2022-11-27T19:28:39.585Z,51.50
2022-11-27T19:31:10.286Z,56.80
2022-11-27T19:33:39.980Z,66.80
2022-11-27T19:38:41.215Z,54.10
2022-11-27T19:41:12.446Z,45.90
2022-11-27T19:43:40.620Z,39.90
2022-11-27T19:46:17.942Z,47.60
2022-11-27T19:48:46.532Z,49.40
2022-11-27T19:51:15.471Z,64.10
2022-11-27T19:53:43.783Z,78.00
2022-11-27T19:56:12.178Z,61.90
2022-11-27T19:58:41.093Z,52.90
2022-11-27T20:01:14.245Z,45.10
2022-11-27T20:03:43.117Z,42.50
2022-11-27T20:06:14.794Z,49.80
2022-11-27T20:08:44.109Z,38.20
2022-11-27T20:11:15.429Z,53.60
2022-11-27T20:13:43.434Z,66.70
2022-11-27T20:16:14.589Z,70.00
2022-11-27T20:18:42.986Z,62.30
2022-11-27T20:21:14.641Z,60.90
2022-11-27T20:23:43.770Z,53.50
2022-11-27T20:26:15.143Z,51.80
2022-11-27T20:28:43.641Z,44.50
2022-11-27T20:31:18.255Z,45.90
2022-11-27T20:33:46.292Z,53.10
2022-11-27T20:36:17.131Z,63.90
2022-11-27T20:38:45.450Z,52.40
2022-11-27T20:41:17.485Z,50.80
2022-11-27T20:43:45.911Z,55.60
2022-11-27T20:46:15.594Z,43.50
2022-11-27T20:48:47.261Z,47.00
2022-11-27T20:51:18.585Z,35.20
2022-11-27T20:53:47.773Z,35.30
2022-11-27T20:56:17.982Z,45.20
2022-11-27T20:58:47.946Z,49.90
2022-11-27T21:01:29.642Z,49.40
2022-11-27T21:04:00.562Z,51.00
2022-11-27T21:06:31.962Z,47.00
2022-11-27T21:09:02.215Z,41.80
2022-11-27T21:11:32.604Z,37.90
2022-11-27T21:14:03.529Z,51.20
2022-11-27T21:16:34.548Z,39.30
2022-11-27T21:19:05.784Z,33.30
2022-11-27T21:21:34.496Z,34.40
2022-11-27T21:24:04.696Z,60.10
2022-11-27T21:26:33.239Z,57.30
2022-11-27T21:29:01.091Z,62.60
2022-11-27T21:31:35.949Z,60.40
2022-11-27T21:34:07.140Z,46.90
2022-11-27T21:36:36.761Z,49.70
2022-11-27T21:39:08.196Z,51.10
2022-11-27T21:41:36.692Z,50.50
2022-11-27T21:44:05.772Z,43.60
2022-11-27T21:46:33.875Z,48.50
2022-11-27T21:49:05.662Z,58.30
2022-11-27T21:51:33.643Z,61.00
2022-11-27T21:54:07.488Z,62.50
2022-11-27T21:56:38.187Z,54.00
2022-11-27T21:59:08.235Z,52.40
2022-11-27T22:01:36.346Z,50.80
2022-11-27T22:04:04.586Z,51.20
2022-11-27T22:06:38.360Z,46.80
2022-11-27T22:09:11.893Z,46.00
2022-11-27T22:11:44.499Z,49.40
2022-11-27T22:14:14.063Z,55.70
2022-11-27T22:16:45.211Z,61.20
2022-11-27T22:19:14.801Z,59.70
2022-11-27T22:21:44.444Z,53.80
2022-11-27T22:27:40.482Z,50.20
2022-11-27T22:30:11.134Z,48.50
2022-11-27T22:32:39.233Z,47.90
2022-11-27T22:35:07.516Z,58.80
2022-11-27T22:37:35.478Z,40.20
2022-11-27T22:40:03.928Z,49.90
2022-11-27T22:42:31.856Z,46.60
2022-11-27T22:44:59.570Z,56.70
2022-11-27T22:47:27.317Z,57.70
2022-11-27T22:49:55.068Z,62.90
2022-11-27T22:52:24.160Z,52.40
2022-11-27T22:54:51.952Z,49.60
2022-11-27T22:57:20.292Z,59.30
2022-11-27T22:59:49.181Z,65.30
2022-11-27T23:02:16.967Z,61.60
2022-11-27T23:04:45.279Z,42.80
2022-11-27T23:07:14.057Z,51.10
2022-11-27T23:09:42.163Z,48.60
2022-11-27T23:12:09.911Z,57.40
2022-11-27T23:14:38.107Z,37.90
2022-11-27T23:17:05.981Z,56.30
2022-11-27T23:19:33.704Z,60.20
2022-11-27T23:22:01.676Z,51.40
2022-11-27T23:24:29.401Z,61.10
2022-11-27T23:26:57.159Z,58.00
2022-11-27T23:29:25.263Z,56.50
2022-11-27T23:31:53.026Z,56.60
2022-11-27T23:34:20.766Z,64.60
2022-11-27T23:36:48.457Z,58.70
2022-11-27T23:39:17.491Z,51.70
2022-11-27T23:41:46.265Z,55.50
2022-11-27T23:44:15.032Z,46.90
2022-11-27T23:46:42.755Z,57.00
2022-11-27T23:49:10.433Z,64.00
2022-11-27T23:51:38.117Z,62.40
2022-11-27T23:54:09.180Z,59.20
2022-11-27T23:56:38.231Z,64.50
2022-11-27T23:59:06.008Z,61.60
